sensor_id;sensor_type;location;lat;lon;timestamp;pressure;altitude;pressure_sealevel;temperature
69186;BMP280;56298;49.246;9.410;2023-07-13T00:01:51;99346.34;;;20.20
69186;BMP280;56298;49.246;9.410;2023-07-13T00:04:19;99363.97;;;20.14
69186;BMP280;56298;49.246;9.410;2023-07-13T00:06:46;99374.66;;;20.19
69186;BMP280;56298;49.246;9.410;2023-07-13T00:09:13;99378.25;;;19.92
69186;BMP280;56298;49.246;9.410;2023-07-13T00:11:40;99381.13;;;19.85
69186;BMP280;56298;49.246;9.410;2023-07-13T00:14:05;99378.75;;;19.87
69186;BMP280;56298;49.246;9.410;2023-07-13T00:16:31;99374.06;;;19.80
69186;BMP280;56298;49.246;9.410;2023-07-13T00:18:56;99370.47;;;19.80
69186;BMP280;56298;49.246;9.410;2023-07-13T00:21:21;99369.47;;;19.70
69186;BMP280;56298;49.246;9.410;2023-07-13T00:23:47;99365.97;;;19.66
69186;BMP280;56298;49.246;9.410;2023-07-13T00:26:12;99376.13;;;19.49
69186;BMP280;56298;49.246;9.410;2023-07-13T00:28:38;99365.09;;;19.41
69186;BMP280;56298;49.246;9.410;2023-07-13T00:31:04;99360.06;;;19.32
69186;BMP280;56298;49.246;9.410;2023-07-13T00:33:30;99353.28;;;19.33
69186;BMP280;56298;49.246;9.410;2023-07-13T00:35:56;99352.13;;;19.31
69186;BMP280;56298;49.246;9.410;2023-07-13T00:38:22;99355.31;;;19.29
69186;BMP280;56298;49.246;9.410;2023-07-13T00:40:47;99349.69;;;19.37
69186;BMP280;56298;49.246;9.410;2023-07-13T00:43:25;99343.84;;;19.27
69186;BMP280;56298;49.246;9.410;2023-07-13T00:48:21;99350.28;;;19.21
69186;BMP280;56298;49.246;9.410;2023-07-13T00:50:50;99354.63;;;19.22
69186;BMP280;56298;49.246;9.410;2023-07-13T00:53:17;99352.44;;;19.06
69186;BMP280;56298;49.246;9.410;2023-07-13T00:55:43;99353.22;;;18.75
69186;BMP280;56298;49.246;9.410;2023-07-13T00:58:08;99357.69;;;18.65
69186;BMP280;56298;49.246;9.410;2023-07-13T01:00:36;99360.75;;;18.74
69186;BMP280;56298;49.246;9.410;2023-07-13T01:03:02;99364.38;;;18.68
69186;BMP280;56298;49.246;9.410;2023-07-13T01:05:30;99357.34;;;18.59
69186;BMP280;56298;49.246;9.410;2023-07-13T01:07:57;99360.97;;;18.53
69186;BMP280;56298;49.246;9.410;2023-07-13T01:10:23;99369.31;;;18.53
69186;BMP280;56298;49.246;9.410;2023-07-13T01:12:49;99360.31;;;18.41
69186;BMP280;56298;49.246;9.410;2023-07-13T01:17:58;99377.78;;;18.38
69186;BMP280;56298;49.246;9.410;2023-07-13T01:20:24;99373.50;;;18.30
69186;BMP280;56298;49.246;9.410;2023-07-13T01:22:49;99374.69;;;18.29
69186;BMP280;56298;49.246;9.410;2023-07-13T01:25:16;99383.97;;;18.11
69186;BMP280;56298;49.246;9.410;2023-07-13T01:27:41;99386.44;;;17.98
69186;BMP280;56298;49.246;9.410;2023-07-13T01:30:06;99389.22;;;17.95
69186;BMP280;56298;49.246;9.410;2023-07-13T01:32:32;99388.09;;;17.89
69186;BMP280;56298;49.246;9.410;2023-07-13T01:34:59;99378.53;;;17.93
69186;BMP280;56298;49.246;9.410;2023-07-13T01:37:25;99375.75;;;17.93
69186;BMP280;56298;49.246;9.410;2023-07-13T01:39:50;99381.75;;;17.92
69186;BMP280;56298;49.246;9.410;2023-07-13T01:42:16;99377.50;;;17.69
69186;BMP280;56298;49.246;9.410;2023-07-13T01:44:42;99379.44;;;17.79
69186;BMP280;56298;49.246;9.410;2023-07-13T01:47:07;99370.72;;;17.81
69186;BMP280;56298;49.246;9.410;2023-07-13T01:49:32;99381.06;;;17.73
69186;BMP280;56298;49.246;9.410;2023-07-13T01:51:57;99391.44;;;17.58
69186;BMP280;56298;49.246;9.410;2023-07-13T01:54:23;99397.38;;;17.60
69186;BMP280;56298;49.246;9.410;2023-07-13T01:56:48;99411.72;;;17.44
69186;BMP280;56298;49.246;9.410;2023-07-13T01:59:13;99407.41;;;17.36
69186;BMP280;56298;49.246;9.410;2023-07-13T02:01:39;99401.91;;;17.18
69186;BMP280;56298;49.246;9.410;2023-07-13T02:04:04;99398.69;;;17.34
69186;BMP280;56298;49.246;9.410;2023-07-13T02:06:29;99395.53;;;17.32
69186;BMP280;56298;49.246;9.410;2023-07-13T02:08:55;99394.78;;;17.20
69186;BMP280;56298;49.246;9.410;2023-07-13T02:11:20;99390.41;;;17.23
69186;BMP280;56298;49.246;9.410;2023-07-13T02:13:45;99400.31;;;17.17
69186;BMP280;56298;49.246;9.410;2023-07-13T02:16:11;99402.38;;;17.05
69186;BMP280;56298;49.246;9.410;2023-07-13T02:18:36;99403.94;;;17.03
69186;BMP280;56298;49.246;9.410;2023-07-13T02:21:02;99402.41;;;16.94
69186;BMP280;56298;49.246;9.410;2023-07-13T02:23:28;99394.44;;;17.04
69186;BMP280;56298;49.246;9.410;2023-07-13T02:25:57;99405.53;;;17.04
69186;BMP280;56298;49.246;9.410;2023-07-13T02:28:23;99411.06;;;17.04
69186;BMP280;56298;49.246;9.410;2023-07-13T02:30:48;99411.09;;;17.00
69186;BMP280;56298;49.246;9.410;2023-07-13T02:33:14;99415.41;;;17.01
69186;BMP280;56298;49.246;9.410;2023-07-13T02:35:39;99407.53;;;16.92
69186;BMP280;56298;49.246;9.410;2023-07-13T02:38:04;99409.13;;;16.93
69186;BMP280;56298;49.246;9.410;2023-07-13T02:40:29;99409.50;;;16.92
69186;BMP280;56298;49.246;9.410;2023-07-13T02:42:58;99408.34;;;16.89
69186;BMP280;56298;49.246;9.410;2023-07-13T02:45:23;99414.25;;;16.91
69186;BMP280;56298;49.246;9.410;2023-07-13T02:47:48;99413.09;;;16.89
69186;BMP280;56298;49.246;9.410;2023-07-13T02:50:13;99407.16;;;16.83
69186;BMP280;56298;49.246;9.410;2023-07-13T02:52:39;99411.50;;;16.77
69186;BMP280;56298;49.246;9.410;2023-07-13T02:55:04;99406.00;;;16.84
69186;BMP280;56298;49.246;9.410;2023-07-13T02:57:29;99405.56;;;16.82
69186;BMP280;56298;49.246;9.410;2023-07-13T02:59:55;99400.41;;;16.80
69186;BMP280;56298;49.246;9.410;2023-07-13T03:02:20;99402.84;;;16.67
69186;BMP280;56298;49.246;9.410;2023-07-13T03:04:46;99408.38;;;16.67
69186;BMP280;56298;49.246;9.410;2023-07-13T03:07:11;99406.38;;;16.50
69186;BMP280;56298;49.246;9.410;2023-07-13T03:09:36;99403.63;;;16.61
69186;BMP280;56298;49.246;9.410;2023-07-13T03:12:01;99413.53;;;16.51
69186;BMP280;56298;49.246;9.410;2023-07-13T03:14:27;99403.25;;;16.51
69186;BMP280;56298;49.246;9.410;2023-07-13T03:16:53;99413.53;;;16.40
69186;BMP280;56298;49.246;9.410;2023-07-13T03:19:18;99416.72;;;16.46
69186;BMP280;56298;49.246;9.410;2023-07-13T03:21:44;99423.41;;;16.45
69186;BMP280;56298;49.246;9.410;2023-07-13T03:24:09;99426.16;;;16.34
69186;BMP280;56298;49.246;9.410;2023-07-13T03:26:34;99434.44;;;16.16
69186;BMP280;56298;49.246;9.410;2023-07-13T03:29:00;99436.44;;;16.15
69186;BMP280;56298;49.246;9.410;2023-07-13T03:31:28;99440.41;;;16.18
69186;BMP280;56298;49.246;9.410;2023-07-13T03:33:55;99441.94;;;16.19
69186;BMP280;56298;49.246;9.410;2023-07-13T03:36:23;99451.06;;;16.23
69186;BMP280;56298;49.246;9.410;2023-07-13T03:38:54;99451.44;;;16.25
69186;BMP280;56298;49.246;9.410;2023-07-13T03:41:21;99452.22;;;16.22
69186;BMP280;56298;49.246;9.410;2023-07-13T03:43:46;99452.22;;;16.15
69186;BMP280;56298;49.246;9.410;2023-07-13T03:46:13;99453.84;;;16.23
69186;BMP280;56298;49.246;9.410;2023-07-13T03:48:40;99461.31;;;16.04
69186;BMP280;56298;49.246;9.410;2023-07-13T03:51:08;99470.81;;;16.07
69186;BMP280;56298;49.246;9.410;2023-07-13T03:53:35;99471.19;;;16.05
69186;BMP280;56298;49.246;9.410;2023-07-13T03:56:00;99466.81;;;15.90
69186;BMP280;56298;49.246;9.410;2023-07-13T03:58:33;99470.34;;;15.90
69186;BMP280;56298;49.246;9.410;2023-07-13T04:00:59;99473.13;;;15.94
69186;BMP280;56298;49.246;9.410;2023-07-13T04:03:26;99471.13;;;15.98
69186;BMP280;56298;49.246;9.410;2023-07-13T04:05:53;99475.53;;;15.99
69186;BMP280;56298;49.246;9.410;2023-07-13T04:08:19;99477.53;;;16.17
69186;BMP280;56298;49.246;9.410;2023-07-13T04:10:44;99477.53;;;16.17
69186;BMP280;56298;49.246;9.410;2023-07-13T04:13:09;99479.94;;;16.29
69186;BMP280;56298;49.246;9.410;2023-07-13T04:15:34;99483.53;;;16.55
69186;BMP280;56298;49.246;9.410;2023-07-13T04:18:00;99493.38;;;16.52
69186;BMP280;56298;49.246;9.410;2023-07-13T04:20:25;99497.38;;;16.59
69186;BMP280;56298;49.246;9.410;2023-07-13T04:22:51;99504.88;;;16.65
69186;BMP280;56298;49.246;9.410;2023-07-13T04:25:18;99499.34;;;16.65
69186;BMP280;56298;49.246;9.410;2023-07-13T04:27:43;99505.66;;;16.66
69186;BMP280;56298;49.246;9.410;2023-07-13T04:30:09;99506.44;;;16.52
69186;BMP280;56298;49.246;9.410;2023-07-13T04:32:34;99510.81;;;16.49
69186;BMP280;56298;49.246;9.410;2023-07-13T04:34:59;99511.97;;;16.45
69186;BMP280;56298;49.246;9.410;2023-07-13T04:37:26;99506.81;;;16.36
69186;BMP280;56298;49.246;9.410;2023-07-13T04:39:51;99511.19;;;16.48
69186;BMP280;56298;49.246;9.410;2023-07-13T04:42:17;99503.28;;;16.61
69186;BMP280;56298;49.246;9.410;2023-07-13T04:44:48;99509.22;;;16.70
69186;BMP280;56298;49.246;9.410;2023-07-13T04:47:14;99512.81;;;16.81
69186;BMP280;56298;49.246;9.410;2023-07-13T04:49:39;99516.34;;;16.82
69186;BMP280;56298;49.246;9.410;2023-07-13T04:52:05;99512.41;;;16.87
69186;BMP280;56298;49.246;9.410;2023-07-13T04:54:32;99510.78;;;16.96
69186;BMP280;56298;49.246;9.410;2023-07-13T04:56:58;99513.94;;;17.06
69186;BMP280;56298;49.246;9.410;2023-07-13T04:59:23;99515.13;;;17.19
69186;BMP280;56298;49.246;9.410;2023-07-13T05:01:48;99508.00;;;17.29
69186;BMP280;56298;49.246;9.410;2023-07-13T05:04:13;99516.69;;;17.42
69186;BMP280;56298;49.246;9.410;2023-07-13T05:06:39;99511.94;;;17.32
69186;BMP280;56298;49.246;9.410;2023-07-13T05:09:05;99510.31;;;17.49
69186;BMP280;56298;49.246;9.410;2023-07-13T05:11:31;99522.50;;;17.77
69186;BMP280;56298;49.246;9.410;2023-07-13T05:13:56;99517.28;;;17.97
69186;BMP280;56298;49.246;9.410;2023-07-13T05:16:21;99519.19;;;18.07
69186;BMP280;56298;49.246;9.410;2023-07-13T05:18:46;99518.34;;;18.18
69186;BMP280;56298;49.246;9.410;2023-07-13T05:21:12;99515.91;;;18.27
69186;BMP280;56298;49.246;9.410;2023-07-13T05:23:37;99515.47;;;18.36
69186;BMP280;56298;49.246;9.410;2023-07-13T05:26:03;99514.59;;;18.42
69186;BMP280;56298;49.246;9.410;2023-07-13T05:28:30;99520.81;;;18.61
69186;BMP280;56298;49.246;9.410;2023-07-13T05:30:55;99516.72;;;18.73
69186;BMP280;56298;49.246;9.410;2023-07-13T05:33:21;99519.94;;;18.68
69186;BMP280;56298;49.246;9.410;2023-07-13T05:35:46;99511.94;;;18.77
69186;BMP280;56298;49.246;9.410;2023-07-13T05:38:12;99510.41;;;18.72
69186;BMP280;56298;49.246;9.410;2023-07-13T05:40:37;99517.78;;;18.94
69186;BMP280;56298;49.246;9.410;2023-07-13T05:43:03;99520.19;;;18.88
69186;BMP280;56298;49.246;9.410;2023-07-13T05:45:28;99525.28;;;18.97
69186;BMP280;56298;49.246;9.410;2023-07-13T05:47:53;99524.16;;;18.87
69186;BMP280;56298;49.246;9.410;2023-07-13T05:50:19;99527.47;;;19.16
69186;BMP280;56298;49.246;9.410;2023-07-13T05:52:44;99531.16;;;19.41
69186;BMP280;56298;49.246;9.410;2023-07-13T05:55:09;99526.34;;;19.45
69186;BMP280;56298;49.246;9.410;2023-07-13T05:57:34;99531.53;;;19.77
69186;BMP280;56298;49.246;9.410;2023-07-13T06:00:00;99531.22;;;19.99
69186;BMP280;56298;49.246;9.410;2023-07-13T06:02:25;99535.81;;;20.41
69186;BMP280;56298;49.246;9.410;2023-07-13T06:04:51;99531.84;;;21.30
69186;BMP280;56298;49.246;9.410;2023-07-13T06:07:16;99530.09;;;21.76
69186;BMP280;56298;49.246;9.410;2023-07-13T06:09:42;99533.25;;;22.15
69186;BMP280;56298;49.246;9.410;2023-07-13T06:12:07;99540.59;;;23.17
69186;BMP280;56298;49.246;9.410;2023-07-13T06:14:33;99543.00;;;23.58
69186;BMP280;56298;49.246;9.410;2023-07-13T06:16:58;99535.19;;;24.04
69186;BMP280;56298;49.246;9.410;2023-07-13T06:19:23;99540.66;;;24.34
69186;BMP280;56298;49.246;9.410;2023-07-13T06:21:48;99548.00;;;24.05
69186;BMP280;56298;49.246;9.410;2023-07-13T06:24:14;99550.94;;;23.33
69186;BMP280;56298;49.246;9.410;2023-07-13T06:26:39;99553.91;;;23.13
69186;BMP280;56298;49.246;9.410;2023-07-13T06:29:04;99553.13;;;22.67
69186;BMP280;56298;49.246;9.410;2023-07-13T06:31:30;99552.38;;;22.50
69186;BMP280;56298;49.246;9.410;2023-07-13T06:33:56;99552.84;;;22.61
69186;BMP280;56298;49.246;9.410;2023-07-13T06:36:21;99562.91;;;22.75
69186;BMP280;56298;49.246;9.410;2023-07-13T06:38:46;99559.16;;;22.82
69186;BMP280;56298;49.246;9.410;2023-07-13T06:41:11;99565.19;;;22.64
69186;BMP280;56298;49.246;9.410;2023-07-13T06:43:37;99569.47;;;22.68
69186;BMP280;56298;49.246;9.410;2023-07-13T06:46:02;99572.09;;;22.59
69186;BMP280;56298;49.246;9.410;2023-07-13T06:48:27;99574.00;;;22.79
69186;BMP280;56298;49.246;9.410;2023-07-13T06:50:53;99574.91;;;22.59
69186;BMP280;56298;49.246;9.410;2023-07-13T06:53:19;99577.88;;;22.35
69186;BMP280;56298;49.246;9.410;2023-07-13T06:55:45;99572.94;;;22.56
69186;BMP280;56298;49.246;9.410;2023-07-13T06:58:11;99577.28;;;23.07
69186;BMP280;56298;49.246;9.410;2023-07-13T07:00:36;99575.53;;;23.81
69186;BMP280;56298;49.246;9.410;2023-07-13T07:03:01;99579.25;;;25.00
69186;BMP280;56298;49.246;9.410;2023-07-13T07:05:26;99580.63;;;25.71
69186;BMP280;56298;49.246;9.410;2023-07-13T07:07:54;99579.16;;;25.57
69186;BMP280;56298;49.246;9.410;2023-07-13T07:10:20;99587.94;;;25.37
69186;BMP280;56298;49.246;9.410;2023-07-13T07:12:45;99584.03;;;24.90
69186;BMP280;56298;49.246;9.410;2023-07-13T07:15:11;99581.81;;;24.85
69186;BMP280;56298;49.246;9.410;2023-07-13T07:17:36;99589.09;;;25.81
69186;BMP280;56298;49.246;9.410;2023-07-13T07:20:02;99593.22;;;26.58
69186;BMP280;56298;49.246;9.410;2023-07-13T07:22:28;99593.53;;;26.69
69186;BMP280;56298;49.246;9.410;2023-07-13T07:24:55;99588.97;;;26.34
69186;BMP280;56298;49.246;9.410;2023-07-13T07:27:20;99606.78;;;26.59
69186;BMP280;56298;49.246;9.410;2023-07-13T07:29:45;99605.25;;;27.05
69186;BMP280;56298;49.246;9.410;2023-07-13T07:32:11;99601.28;;;27.39
69186;BMP280;56298;49.246;9.410;2023-07-13T07:34:36;99604.78;;;27.58
69186;BMP280;56298;49.246;9.410;2023-07-13T07:37:02;99603.72;;;27.99
69186;BMP280;56298;49.246;9.410;2023-07-13T07:39:27;99606.69;;;28.19
69186;BMP280;56298;49.246;9.410;2023-07-13T07:41:53;99608.38;;;29.04
69186;BMP280;56298;49.246;9.410;2023-07-13T07:44:18;99598.84;;;29.82
69186;BMP280;56298;49.246;9.410;2023-07-13T07:46:43;99610.91;;;29.83
69186;BMP280;56298;49.246;9.410;2023-07-13T07:49:09;99607.75;;;29.75
69186;BMP280;56298;49.246;9.410;2023-07-13T07:51:34;99609.91;;;29.65
69186;BMP280;56298;49.246;9.410;2023-07-13T07:53:59;99608.28;;;30.83
69186;BMP280;56298;49.246;9.410;2023-07-13T07:56:25;99606.28;;;30.89
69186;BMP280;56298;49.246;9.410;2023-07-13T07:58:50;99603.31;;;30.51
69186;BMP280;56298;49.246;9.410;2023-07-13T08:01:15;99607.34;;;31.55
69186;BMP280;56298;49.246;9.410;2023-07-13T08:03:41;99611.66;;;31.88
69186;BMP280;56298;49.246;9.410;2023-07-13T08:06:06;99607.22;;;31.82
69186;BMP280;56298;49.246;9.410;2023-07-13T08:08:32;99611.66;;;31.88
69186;BMP280;56298;49.246;9.410;2023-07-13T08:10:57;99606.72;;;32.55
69186;BMP280;56298;49.246;9.410;2023-07-13T08:13:22;99601.78;;;31.84
69186;BMP280;56298;49.246;9.410;2023-07-13T08:15:47;99608.72;;;32.32
69186;BMP280;56298;49.246;9.410;2023-07-13T08:18:14;99603.84;;;32.44
69186;BMP280;56298;49.246;9.410;2023-07-13T08:20:40;99605.06;;;32.20
69186;BMP280;56298;49.246;9.410;2023-07-13T08:23:06;99603.56;;;32.36
69186;BMP280;56298;49.246;9.410;2023-07-13T08:25:33;99597.34;;;32.32
69186;BMP280;56298;49.246;9.410;2023-07-13T08:27:58;99600.09;;;31.98
69186;BMP280;56298;49.246;9.410;2023-07-13T08:30:23;99603.25;;;31.62
69186;BMP280;56298;49.246;9.410;2023-07-13T08:32:49;99604.47;;;31.99
69186;BMP280;56298;49.246;9.410;2023-07-13T08:35:14;99605.53;;;32.07
69186;BMP280;56298;49.246;9.410;2023-07-13T08:37:41;99596.81;;;32.22
69186;BMP280;56298;49.246;9.410;2023-07-13T08:40:08;99600.28;;;32.72
69186;BMP280;56298;49.246;9.410;2023-07-13T08:42:50;99600.53;;;32.62
69186;BMP280;56298;49.246;9.410;2023-07-13T08:45:25;99607.25;;;32.65
69186;BMP280;56298;49.246;9.410;2023-07-13T08:47:57;99602.91;;;32.81
69186;BMP280;56298;49.246;9.410;2023-07-13T08:50:31;99597.66;;;32.57
69186;BMP280;56298;49.246;9.410;2023-07-13T08:52:58;99609.34;;;32.98
69186;BMP280;56298;49.246;9.410;2023-07-13T08:55:31;99607.25;;;32.82
69186;BMP280;56298;49.246;9.410;2023-07-13T08:58:14;99602.88;;;33.21
69186;BMP280;56298;49.246;9.410;2023-07-13T09:00:50;99595.34;;;33.40
69186;BMP280;56298;49.246;9.410;2023-07-13T09:03:23;99609.03;;;33.59
69186;BMP280;56298;49.246;9.410;2023-07-13T09:05:57;99609.16;;;33.95
69186;BMP280;56298;49.246;9.410;2023-07-13T09:11:50;99619.66;;;33.36
69186;BMP280;56298;49.246;9.410;2023-07-13T09:17:04;99606.22;;;32.79
69186;BMP280;56298;49.246;9.410;2023-07-13T09:19:32;99608.16;;;32.22
69186;BMP280;56298;49.246;9.410;2023-07-13T09:21:59;99600.00;;;32.47
69186;BMP280;56298;49.246;9.410;2023-07-13T09:24:45;99617.03;;;31.81
69186;BMP280;56298;49.246;9.410;2023-07-13T09:27:22;99605.28;;;32.11
69186;BMP280;56298;49.246;9.410;2023-07-13T09:32:33;99613.13;;;31.78
69186;BMP280;56298;49.246;9.410;2023-07-13T09:34:59;99601.84;;;31.89
69186;BMP280;56298;49.246;9.410;2023-07-13T09:37:30;99600.66;;;32.13
69186;BMP280;56298;49.246;9.410;2023-07-13T09:39:56;99605.09;;;31.71
69186;BMP280;56298;49.246;9.410;2023-07-13T09:42:22;99609.81;;;31.10
69186;BMP280;56298;49.246;9.410;2023-07-13T09:44:59;99603.91;;;31.14
69186;BMP280;56298;49.246;9.410;2023-07-13T09:47:33;99605.34;;;31.30
69186;BMP280;56298;49.246;9.410;2023-07-13T09:50:06;99605.03;;;30.96
69186;BMP280;56298;49.246;9.410;2023-07-13T09:52:44;99603.34;;;31.04
69186;BMP280;56298;49.246;9.410;2023-07-13T09:55:26;99605.28;;;30.66
69186;BMP280;56298;49.246;9.410;2023-07-13T09:57:52;99607.59;;;30.67
69186;BMP280;56298;49.246;9.410;2023-07-13T10:00:29;99606.19;;;31.09
69186;BMP280;56298;49.246;9.410;2023-07-13T10:03:19;99603.13;;;31.13
69186;BMP280;56298;49.246;9.410;2023-07-13T10:05:46;99605.97;;;31.45
69186;BMP280;56298;49.246;9.410;2023-07-13T10:08:21;99605.06;;;31.28
69186;BMP280;56298;49.246;9.410;2023-07-13T10:10:52;99603.50;;;30.68
69186;BMP280;56298;49.246;9.410;2023-07-13T10:15:57;99612.91;;;31.12
69186;BMP280;56298;49.246;9.410;2023-07-13T10:18:24;99607.28;;;31.50
69186;BMP280;56298;49.246;9.410;2023-07-13T10:20:54;99614.50;;;31.19
69186;BMP280;56298;49.246;9.410;2023-07-13T10:23:27;99616.53;;;31.45
69186;BMP280;56298;49.246;9.410;2023-07-13T10:25:56;99595.59;;;31.74
69186;BMP280;56298;49.246;9.410;2023-07-13T10:28:33;99595.44;;;30.87
69186;BMP280;56298;49.246;9.410;2023-07-13T10:31:01;99609.91;;;30.63
69186;BMP280;56298;49.246;9.410;2023-07-13T10:33:27;99602.59;;;31.09
69186;BMP280;56298;49.246;9.410;2023-07-13T10:36:03;99606.28;;;31.53
69186;BMP280;56298;49.246;9.410;2023-07-13T10:38:31;99602.63;;;31.96
69186;BMP280;56298;49.246;9.410;2023-07-13T10:41:06;99589.28;;;32.02
69186;BMP280;56298;49.246;9.410;2023-07-13T10:43:39;99596.06;;;31.72
69186;BMP280;56298;49.246;9.410;2023-07-13T10:46:08;99606.19;;;31.79
69186;BMP280;56298;49.246;9.410;2023-07-13T10:48:35;99609.91;;;31.59
69186;BMP280;56298;49.246;9.410;2023-07-13T10:51:03;99613.56;;;31.65
69186;BMP280;56298;49.246;9.410;2023-07-13T10:53:34;99607.28;;;31.50
69186;BMP280;56298;49.246;9.410;2023-07-13T10:56:22;99602.25;;;31.01
69186;BMP280;56298;49.246;9.410;2023-07-13T10:59:01;99603.78;;;30.70
69186;BMP280;56298;49.246;9.410;2023-07-13T11:01:39;99604.16;;;30.57
69186;BMP280;56298;49.246;9.410;2023-07-13T11:04:04;99599.72;;;30.51
69186;BMP280;56298;49.246;9.410;2023-07-13T11:06:43;99601.41;;;30.63
69186;BMP280;56298;49.246;9.410;2023-07-13T11:09:18;99603.94;;;30.87
69186;BMP280;56298;49.246;9.410;2023-07-13T11:11:44;99593.63;;;30.84
69186;BMP280;56298;49.246;9.410;2023-07-13T11:14:37;99596.44;;;30.84
69186;BMP280;56298;49.246;9.410;2023-07-13T11:20:46;99580.56;;;31.68
69186;BMP280;56298;49.246;9.410;2023-07-13T11:25:39;99581.03;;;31.55
69186;BMP280;56298;49.246;9.410;2023-07-13T11:38:39;99582.81;;;31.15
69186;BMP280;56298;49.246;9.410;2023-07-13T11:41:30;99581.34;;;31.25
69186;BMP280;56298;49.246;9.410;2023-07-13T11:44:26;99576.56;;;31.92
69186;BMP280;56298;49.246;9.410;2023-07-13T11:46:54;99580.38;;;32.43
69186;BMP280;56298;49.246;9.410;2023-07-13T11:49:22;99575.66;;;32.29
69186;BMP280;56298;49.246;9.410;2023-07-13T11:51:48;99569.78;;;32.44
69186;BMP280;56298;49.246;9.410;2023-07-13T11:54:42;99565.16;;;32.69
69186;BMP280;56298;49.246;9.410;2023-07-13T11:59:42;99571.66;;;31.81
69186;BMP280;56298;49.246;9.410;2023-07-13T12:02:16;99571.97;;;32.00
69186;BMP280;56298;49.246;9.410;2023-07-13T12:04:43;99573.59;;;32.18
69186;BMP280;56298;49.246;9.410;2023-07-13T12:07:16;99577.47;;;32.20
69186;BMP280;56298;49.246;9.410;2023-07-13T12:09:42;99572.63;;;31.72
69186;BMP280;56298;49.246;9.410;2023-07-13T12:12:17;99571.44;;;31.47
69186;BMP280;56298;49.246;9.410;2023-07-13T12:14:43;99575.09;;;31.53
69186;BMP280;56298;49.246;9.410;2023-07-13T12:17:16;99580.06;;;31.26
69186;BMP280;56298;49.246;9.410;2023-07-13T12:19:43;99572.97;;;31.10
69186;BMP280;56298;49.246;9.410;2023-07-13T12:22:11;99584.53;;;30.74
69186;BMP280;56298;49.246;9.410;2023-07-13T12:24:38;99584.03;;;30.55
69186;BMP280;56298;49.246;9.410;2023-07-13T12:27:05;99588.31;;;30.66
69186;BMP280;56298;49.246;9.410;2023-07-13T12:29:33;99579.81;;;31.24
69186;BMP280;56298;49.246;9.410;2023-07-13T12:31:59;99581.16;;;31.34
69186;BMP280;56298;49.246;9.410;2023-07-13T12:34:25;99571.06;;;31.71
69186;BMP280;56298;49.246;9.410;2023-07-13T12:36:54;99565.59;;;31.62
69186;BMP280;56298;49.246;9.410;2023-07-13T12:39:45;99572.00;;;31.19
69186;BMP280;56298;49.246;9.410;2023-07-13T12:44:46;99576.78;;;30.75
69186;BMP280;56298;49.246;9.410;2023-07-13T12:47:13;99575.91;;;30.89
69186;BMP280;56298;49.246;9.410;2023-07-13T12:50:04;99569.88;;;30.82
69186;BMP280;56298;49.246;9.410;2023-07-13T12:52:33;99571.91;;;31.07
69186;BMP280;56298;49.246;9.410;2023-07-13T12:55:14;99579.81;;;30.98
69186;BMP280;56298;49.246;9.410;2023-07-13T13:00:38;99571.03;;;30.96
69186;BMP280;56298;49.246;9.410;2023-07-13T13:03:19;99567.50;;;31.01
69186;BMP280;56298;49.246;9.410;2023-07-13T13:05:46;99571.88;;;31.02
69186;BMP280;56298;49.246;9.410;2023-07-13T13:08:12;99568.00;;;30.99
69186;BMP280;56298;49.246;9.410;2023-07-13T13:10:38;99564.78;;;30.86
69186;BMP280;56298;49.246;9.410;2023-07-13T13:13:03;99569.78;;;30.70
69186;BMP280;56298;49.246;9.410;2023-07-13T13:15:28;99572.94;;;30.78
69186;BMP280;56298;49.246;9.410;2023-07-13T13:17:55;99573.44;;;30.76
69186;BMP280;56298;49.246;9.410;2023-07-13T13:20:21;99560.44;;;30.90
69186;BMP280;56298;49.246;9.410;2023-07-13T13:22:47;99570.47;;;30.59
69186;BMP280;56298;49.246;9.410;2023-07-13T13:25:14;99575.06;;;30.57
69186;BMP280;56298;49.246;9.410;2023-07-13T13:27:43;99577.31;;;30.73
69186;BMP280;56298;49.246;9.410;2023-07-13T13:30:14;99579.91;;;30.51
69186;BMP280;56298;49.246;9.410;2023-07-13T13:32:44;99574.88;;;30.66
69186;BMP280;56298;49.246;9.410;2023-07-13T13:35:19;99574.00;;;30.54
69186;BMP280;56298;49.246;9.410;2023-07-13T13:37:46;99569.94;;;30.87
69186;BMP280;56298;49.246;9.410;2023-07-13T13:40:22;99574.22;;;31.03
69186;BMP280;56298;49.246;9.410;2023-07-13T13:42:48;99563.75;;;31.15
69186;BMP280;56298;49.246;9.410;2023-07-13T13:45:13;99566.72;;;30.48
69186;BMP280;56298;49.246;9.410;2023-07-13T13:47:39;99570.66;;;30.29
69186;BMP280;56298;49.246;9.410;2023-07-13T13:50:17;99572.28;;;30.36
69186;BMP280;56298;49.246;9.410;2023-07-13T13:52:43;99573.72;;;30.78
69186;BMP280;56298;49.246;9.410;2023-07-13T13:57:38;99566.75;;;29.50
69186;BMP280;56298;49.246;9.410;2023-07-13T14:00:04;99579.41;;;29.55
69186;BMP280;56298;49.246;9.410;2023-07-13T14:02:31;99574.81;;;29.57
69186;BMP280;56298;49.246;9.410;2023-07-13T14:04:59;99578.28;;;30.03
69186;BMP280;56298;49.246;9.410;2023-07-13T14:07:25;99584.66;;;30.39
69186;BMP280;56298;49.246;9.410;2023-07-13T14:09:56;99581.00;;;29.91
69186;BMP280;56298;49.246;9.410;2023-07-13T14:12:22;99577.81;;;30.25
69186;BMP280;56298;49.246;9.410;2023-07-13T14:14:49;99576.09;;;30.54
69186;BMP280;56298;49.246;9.410;2023-07-13T14:17:20;99564.91;;;30.24
69186;BMP280;56298;49.246;9.410;2023-07-13T14:19:50;99559.75;;;30.02
69186;BMP280;56298;49.246;9.410;2023-07-13T14:22:17;99567.69;;;29.77
69186;BMP280;56298;49.246;9.410;2023-07-13T14:24:43;99565.59;;;29.42
69186;BMP280;56298;49.246;9.410;2023-07-13T14:27:10;99570.66;;;29.52
69186;BMP280;56298;49.246;9.410;2023-07-13T14:29:36;99578.78;;;29.65
69186;BMP280;56298;49.246;9.410;2023-07-13T14:32:01;99560.81;;;30.04
69186;BMP280;56298;49.246;9.410;2023-07-13T14:34:26;99567.41;;;29.95
69186;BMP280;56298;49.246;9.410;2023-07-13T14:36:52;99569.16;;;29.93
69186;BMP280;56298;49.246;9.410;2023-07-13T14:39:22;99566.22;;;29.66
69186;BMP280;56298;49.246;9.410;2023-07-13T14:41:53;99578.31;;;29.31
69186;BMP280;56298;49.246;9.410;2023-07-13T14:44:29;99580.75;;;29.09
69186;BMP280;56298;49.246;9.410;2023-07-13T14:46:57;99574.22;;;29.02
69186;BMP280;56298;49.246;9.410;2023-07-13T14:49:32;99566.22;;;29.01
69186;BMP280;56298;49.246;9.410;2023-07-13T14:51:59;99579.19;;;29.08
69186;BMP280;56298;49.246;9.410;2023-07-13T14:54:25;99584.13;;;28.98
69186;BMP280;56298;49.246;9.410;2023-07-13T14:56:50;99581.53;;;28.94